MUHG/HOG METAR and TAF weather

Enter ICAO airport designator
Station Type Date Time Source
MUHG METAR 2021/03/01 20:50 UTC NOAA

MUHG 012050Z 05018KT 9000 FEW035 30/18 Q1014


Station Type Date Time Source
MUHG Decoded METAR 2021/03/01 20:50 UTC NOAA

Holguin Civ / Mil , Cuba (MUHG) 20-47N 076-19W
Mar 01, 2021 - 03:50 PM EST / 2021.03.01 2050 UTC
Wind: from the NE (050 degrees) at 21 MPH (18 KT):0
Visibility: 5 mile(s):0
Sky conditions: mostly clear
Temperature: 86 F (30 C)
Dew Point: 64 F (18 C)
Relative Humidity: 48%
Pressure (altimeter): 29.94 in. Hg (1014 hPa)
ob: MUHG 012050Z 05018KT 9000 FEW035 30/18 Q1014
cycle: 21

Station Type Date Time Source
MUHG TAF 2021/03/01 18:03 UTC NOAA

TAF MUHG 011700Z 0118/0218 08016KT 9000 SCT020
BECMG 0201/0203 09008KT
BECMG 0215/0217 09015KT

Example: see airport list